createdAt,value
2019-05-10T00:00:41.215Z,10.70
2019-05-10T00:03:28.320Z,10.70
2019-05-10T00:09:31.756Z,10.60
2019-05-10T00:12:02.927Z,10.60
2019-05-10T00:14:34.216Z,10.60
2019-05-10T00:17:05.556Z,10.60
2019-05-10T00:19:35.026Z,10.60
2019-05-10T00:22:04.522Z,10.60
2019-05-10T00:24:33.876Z,10.70
2019-05-10T00:27:03.255Z,10.70
2019-05-10T00:29:32.751Z,10.60
2019-05-10T00:32:02.329Z,10.70
2019-05-10T00:34:31.712Z,10.70
2019-05-10T00:37:01.165Z,10.70
2019-05-10T00:39:30.612Z,10.70
2019-05-10T00:42:01.066Z,10.70
2019-05-10T00:44:30.479Z,10.60
2019-05-10T00:46:59.855Z,10.60
2019-05-10T00:49:29.316Z,10.60
2019-05-10T00:51:58.675Z,10.50
2019-05-10T00:54:28.144Z,10.50
2019-05-10T00:56:57.588Z,10.50
2019-05-10T00:59:26.955Z,10.50
2019-05-10T01:01:56.423Z,10.50
2019-05-10T01:04:26.905Z,10.50
2019-05-10T01:06:57.130Z,10.50
2019-05-10T01:09:26.483Z,10.50
2019-05-10T01:11:55.872Z,10.50
2019-05-10T01:17:48.916Z,10.50
2019-05-10T01:20:18.419Z,10.40
2019-05-10T01:22:47.870Z,10.30
2019-05-10T01:25:17.309Z,10.30
2019-05-10T01:27:47.915Z,10.20
2019-05-10T01:30:17.804Z,10.20
2019-05-10T01:32:47.241Z,10.20
2019-05-10T01:35:16.663Z,10.20
2019-05-10T01:37:46.012Z,10.20
2019-05-10T01:40:15.385Z,10.10
2019-05-10T01:42:44.738Z,10.10
2019-05-10T01:45:14.850Z,10.10
2019-05-10T01:47:44.272Z,10.00
2019-05-10T01:50:14.943Z,10.00
2019-05-10T01:52:44.313Z,10.00
2019-05-10T01:55:14.031Z,10.00
2019-05-10T01:57:43.443Z,9.90
2019-05-10T02:00:14.413Z,9.90
2019-05-10T02:02:43.839Z,9.90
2019-05-10T02:05:14.027Z,9.90
2019-05-10T02:07:43.581Z,9.90
2019-05-10T02:10:13.263Z,9.90
2019-05-10T02:12:42.681Z,9.90
2019-05-10T02:15:12.374Z,9.90
2019-05-10T02:17:41.823Z,9.90
2019-05-10T02:20:12.109Z,9.90
2019-05-10T02:22:41.457Z,9.90
2019-05-10T02:25:11.577Z,9.90
2019-05-10T02:27:40.996Z,9.90
2019-05-10T02:30:10.781Z,9.90
2019-05-10T02:32:40.260Z,9.90
2019-05-10T02:35:09.695Z,9.90
2019-05-10T02:37:39.146Z,9.90
2019-05-10T02:40:09.009Z,9.90
2019-05-10T02:42:38.460Z,9.90
2019-05-10T02:45:08.946Z,9.90
2019-05-10T02:47:38.375Z,9.90
2019-05-10T02:50:08.573Z,9.80
2019-05-10T02:52:38.061Z,9.80
2019-05-10T02:55:07.563Z,9.80
2019-05-10T02:57:37.538Z,9.80
2019-05-10T03:00:08.892Z,9.80
2019-05-10T03:02:38.554Z,9.80
2019-05-10T03:05:08.656Z,9.80
2019-05-10T03:07:39.081Z,9.80
2019-05-10T03:10:10.659Z,9.80
2019-05-10T03:12:41.834Z,9.80
2019-05-10T03:15:12.898Z,9.80
2019-05-10T03:17:42.458Z,9.80
2019-05-10T03:20:12.832Z,9.80
2019-05-10T03:22:43.812Z,9.80
2019-05-10T03:25:14.446Z,9.70
2019-05-10T03:27:45.117Z,9.70
2019-05-10T03:30:14.694Z,9.70
2019-05-10T03:32:44.093Z,9.70
2019-05-10T03:35:13.604Z,9.70
2019-05-10T03:37:43.167Z,9.70
2019-05-10T03:40:12.579Z,9.70
2019-05-10T03:42:42.008Z,9.70
2019-05-10T03:45:11.772Z,9.70
2019-05-10T03:47:41.196Z,9.70
2019-05-10T03:50:11.079Z,9.70
2019-05-10T03:52:40.440Z,9.80
2019-05-10T03:55:10.208Z,9.80
2019-05-10T03:57:39.633Z,9.80
2019-05-10T04:00:12.410Z,9.80
2019-05-10T04:02:41.921Z,9.80
2019-05-10T04:05:11.910Z,9.80
2019-05-10T04:07:41.353Z,9.80
2019-05-10T04:10:11.121Z,9.80
2019-05-10T04:12:40.540Z,9.80
2019-05-10T04:15:10.826Z,9.80
2019-05-10T04:17:41.239Z,9.80
2019-05-10T04:20:11.136Z,9.80
2019-05-10T04:22:40.560Z,9.80
2019-05-10T04:28:34.476Z,9.80
2019-05-10T04:31:03.843Z,9.80
2019-05-10T04:33:33.356Z,9.70
2019-05-10T04:36:02.724Z,9.70
2019-05-10T04:38:32.144Z,9.70
2019-05-10T04:44:24.928Z,9.70
2019-05-10T04:46:54.352Z,9.80
2019-05-10T04:49:23.732Z,9.80
2019-05-10T04:51:53.091Z,9.80
2019-05-10T04:54:22.455Z,9.80
2019-05-10T04:56:51.892Z,9.80
2019-05-10T05:02:56.833Z,9.80
2019-05-10T05:05:26.256Z,9.80
2019-05-10T05:07:55.635Z,9.80
2019-05-10T05:10:25.068Z,9.90
2019-05-10T05:12:54.425Z,9.80
2019-05-10T05:15:23.863Z,9.90
2019-05-10T05:17:53.222Z,9.90
2019-05-10T05:20:22.674Z,9.90
2019-05-10T05:22:52.098Z,9.90
2019-05-10T05:28:45.079Z,9.90
2019-05-10T05:31:14.455Z,10.00
2019-05-10T05:33:43.811Z,10.10
2019-05-10T05:39:25.403Z,10.10
2019-05-10T05:41:56.778Z,10.10
2019-05-10T05:44:27.720Z,10.10
2019-05-10T05:46:58.032Z,10.10
2019-05-10T05:49:27.477Z,10.10
2019-05-10T05:51:56.909Z,10.10
2019-05-10T05:54:26.264Z,10.10
2019-05-10T05:56:55.715Z,10.10
2019-05-10T05:59:26.226Z,10.10
2019-05-10T06:02:00.467Z,10.10
2019-05-10T06:04:27.612Z,10.20
2019-05-10T06:06:59.014Z,10.20
2019-05-10T06:09:32.051Z,10.20
2019-05-10T06:11:59.219Z,10.20
2019-05-10T06:14:28.575Z,10.30
2019-05-10T06:16:57.931Z,10.30
2019-05-10T06:19:46.645Z,10.40
2019-05-10T06:22:16.028Z,10.40
2019-05-10T06:24:46.674Z,10.50
2019-05-10T06:27:16.543Z,10.50
2019-05-10T06:29:45.987Z,10.50
2019-05-10T06:32:15.339Z,10.60
2019-05-10T06:34:44.708Z,10.60
2019-05-10T06:37:14.090Z,10.60
2019-05-10T06:39:43.514Z,10.70
2019-05-10T06:42:12.864Z,10.70
2019-05-10T06:44:42.231Z,10.70
2019-05-10T06:47:11.586Z,10.60
2019-05-10T06:49:50.727Z,10.60
2019-05-10T06:52:16.220Z,10.60
2019-05-10T06:54:44.309Z,10.70
2019-05-10T06:57:17.496Z,10.80
2019-05-10T06:59:44.798Z,10.90
2019-05-10T07:02:14.228Z,10.80
2019-05-10T07:04:43.589Z,10.80
2019-05-10T07:07:22.107Z,10.80
2019-05-10T07:10:03.918Z,10.80
2019-05-10T07:12:17.902Z,10.70
2019-05-10T07:14:46.744Z,10.70
2019-05-10T07:17:16.369Z,10.50
2019-05-10T07:19:53.505Z,10.40
2019-05-10T07:22:21.669Z,10.30
2019-05-10T07:24:49.008Z,10.30
2019-05-10T07:27:18.446Z,10.40
2019-05-10T07:29:47.952Z,10.40
2019-05-10T07:32:22.066Z,10.40
2019-05-10T07:34:58.313Z,10.40
2019-05-10T07:37:20.325Z,10.40
2019-05-10T07:39:49.688Z,10.40
2019-05-10T07:42:19.059Z,10.40
2019-05-10T07:44:51.345Z,10.50
2019-05-10T07:47:23.845Z,10.50
2019-05-10T07:49:51.860Z,10.50
2019-05-10T07:52:21.312Z,10.70
2019-05-10T07:54:50.734Z,10.70
2019-05-10T07:57:24.752Z,10.70
2019-05-10T07:59:51.491Z,10.60
2019-05-10T08:02:21.764Z,10.50
2019-05-10T08:04:53.542Z,10.50
2019-05-10T08:07:22.182Z,10.30
2019-05-10T08:09:51.619Z,10.20
2019-05-10T08:12:21.035Z,10.30
2019-05-10T08:14:53.572Z,10.30
2019-05-10T08:17:21.443Z,10.40
2019-05-10T08:19:50.819Z,10.40
2019-05-10T08:22:20.169Z,10.40
2019-05-10T08:24:54.370Z,10.50
2019-05-10T08:27:23.024Z,10.60
2019-05-10T08:30:15.841Z,10.60
2019-05-10T08:32:25.529Z,10.70
2019-05-10T08:34:56.187Z,10.80
2019-05-10T08:37:36.162Z,11.10
2019-05-10T08:39:57.995Z,11.30
2019-05-10T08:42:40.817Z,11.50
2019-05-10T08:45:03.737Z,11.50
2019-05-10T08:47:29.486Z,11.50
2019-05-10T08:50:12.080Z,11.50
2019-05-10T08:52:33.974Z,11.50
2019-05-10T08:55:02.900Z,11.50
2019-05-10T08:57:34.845Z,11.60
2019-05-10T09:00:08.846Z,11.70
2019-05-10T09:02:37.694Z,11.80
2019-05-10T09:05:07.124Z,11.80
2019-05-10T09:07:39.394Z,11.80
2019-05-10T09:10:09.844Z,11.70
2019-05-10T09:12:44.251Z,11.70
2019-05-10T09:15:13.447Z,11.70
2019-05-10T09:17:44.328Z,11.80
2019-05-10T09:20:20.818Z,11.80
2019-05-10T09:22:44.967Z,12.00
2019-05-10T09:25:14.736Z,12.10
2019-05-10T09:27:44.100Z,12.10
2019-05-10T09:30:18.584Z,12.10
2019-05-10T09:32:47.670Z,12.00
2019-05-10T09:35:17.109Z,12.00
2019-05-10T09:37:47.738Z,12.00
2019-05-10T09:40:17.668Z,12.00
2019-05-10T09:42:47.119Z,12.00
2019-05-10T09:45:16.632Z,12.00
2019-05-10T09:47:46.111Z,12.00
2019-05-10T09:50:15.943Z,12.00
2019-05-10T09:52:45.308Z,12.20
2019-05-10T09:55:17.522Z,12.40
2019-05-10T09:57:48.021Z,12.60
2019-05-10T10:00:19.741Z,12.80
2019-05-10T10:02:56.263Z,12.80
2019-05-10T10:05:20.328Z,12.80
2019-05-10T10:07:49.787Z,12.80
2019-05-10T10:10:28.564Z,12.70
2019-05-10T10:12:50.426Z,12.60
2019-05-10T10:15:32.177Z,12.60
2019-05-10T10:17:50.998Z,12.50
2019-05-10T10:20:20.672Z,12.40
2019-05-10T10:22:54.534Z,12.30
2019-05-10T10:28:49.692Z,12.30
2019-05-10T10:31:27.033Z,12.20
2019-05-10T10:33:57.357Z,12.20
2019-05-10T10:36:18.706Z,12.30
2019-05-10T10:42:13.258Z,12.30
2019-05-10T10:44:42.888Z,12.30
2019-05-10T10:47:14.648Z,12.20
2019-05-10T10:53:08.276Z,12.40
2019-05-10T10:59:01.661Z,12.30
2019-05-10T11:04:54.988Z,12.60
2019-05-10T11:07:24.357Z,12.70
2019-05-10T11:10:08.267Z,12.80
2019-05-10T11:12:24.852Z,12.80
2019-05-10T11:14:54.209Z,13.00
2019-05-10T11:17:23.569Z,13.20
2019-05-10T11:19:52.959Z,13.40
2019-05-10T11:22:22.409Z,13.60
2019-05-10T11:25:03.034Z,13.80
2019-05-10T11:27:23.936Z,13.90
2019-05-10T11:29:55.161Z,14.10
2019-05-10T11:32:24.363Z,14.30
2019-05-10T11:34:53.812Z,14.50
2019-05-10T11:37:31.224Z,14.60
2019-05-10T11:39:54.324Z,14.30
2019-05-10T11:42:23.769Z,14.10
2019-05-10T11:44:54.655Z,13.90
2019-05-10T11:47:27.174Z,13.80
2019-05-10T11:49:55.489Z,13.80
2019-05-10T11:52:29.223Z,13.70
2019-05-10T11:54:55.987Z,13.70
2019-05-10T11:57:25.411Z,13.60
2019-05-10T11:59:54.791Z,13.50
2019-05-10T12:02:37.825Z,13.40
2019-05-10T12:04:55.221Z,13.50
2019-05-10T12:07:33.904Z,13.70
2019-05-10T12:10:03.143Z,13.90
2019-05-10T12:14:57.774Z,14.30
2019-05-10T12:17:28.199Z,14.50
2019-05-10T12:19:57.620Z,14.70
2019-05-10T12:22:31.982Z,14.90
2019-05-10T12:25:20.539Z,15.00
2019-05-10T12:26:21.452Z,14.10
2019-05-10T12:27:42.196Z,15.10
2019-05-10T12:30:03.249Z,15.30
2019-05-10T12:32:35.195Z,15.40
2019-05-10T12:35:02.399Z,15.50
2019-05-10T12:37:32.024Z,15.50
2019-05-10T12:40:09.588Z,15.30
2019-05-10T12:42:32.526Z,15.10
2019-05-10T12:45:01.978Z,15.00
2019-05-10T12:47:33.698Z,14.90
2019-05-10T12:50:03.585Z,14.80
2019-05-10T12:52:33.237Z,14.80
2019-05-10T12:55:02.663Z,14.80
2019-05-10T12:57:32.189Z,14.90
2019-05-10T13:00:06.435Z,14.90
2019-05-10T13:02:33.068Z,14.90
2019-05-10T13:05:02.496Z,15.00
2019-05-10T13:07:31.922Z,15.20
2019-05-10T13:10:05.877Z,15.30
2019-05-10T13:12:36.756Z,15.50
2019-05-10T13:15:04.945Z,15.70
2019-05-10T13:17:34.368Z,15.80
2019-05-10T13:20:08.020Z,16.00
2019-05-10T13:22:39.294Z,16.40
2019-05-10T13:25:09.068Z,16.70
2019-05-10T13:27:38.892Z,16.70
2019-05-10T13:30:09.408Z,16.60
2019-05-10T13:32:38.936Z,16.20
2019-05-10T13:35:08.423Z,16.00
2019-05-10T13:37:37.776Z,15.80
2019-05-10T13:40:08.395Z,15.70
2019-05-10T13:42:43.215Z,15.50
2019-05-10T13:45:09.207Z,15.30
2019-05-10T13:47:38.636Z,15.30
2019-05-10T13:50:08.652Z,15.20
2019-05-10T13:52:40.860Z,15.20
2019-05-10T13:55:09.235Z,15.10
2019-05-10T13:57:38.656Z,15.00
2019-05-10T14:00:09.136Z,14.90
2019-05-10T14:02:38.560Z,14.90
2019-05-10T14:05:11.827Z,15.10
2019-05-10T14:07:39.613Z,15.40
2019-05-10T14:10:09.367Z,15.50
2019-05-10T14:12:38.815Z,15.60
2019-05-10T14:15:13.321Z,15.70
2019-05-10T14:17:40.647Z,15.60
2019-05-10T14:20:19.623Z,15.50
2019-05-10T14:22:41.810Z,15.60
2019-05-10T14:25:11.659Z,15.70
2019-05-10T14:27:41.034Z,15.80
2019-05-10T14:30:13.327Z,15.90
2019-05-10T14:32:42.051Z,15.80
2019-05-10T14:35:11.540Z,15.80
2019-05-10T14:37:40.920Z,15.80
2019-05-10T14:40:10.418Z,16.00
2019-05-10T14:42:39.845Z,16.20
2019-05-10T14:45:09.844Z,16.30
2019-05-10T14:47:48.485Z,16.50
2019-05-10T14:50:10.403Z,16.60
2019-05-10T14:52:39.823Z,16.40
2019-05-10T14:55:12.945Z,16.20
2019-05-10T14:57:41.499Z,15.90
2019-05-10T15:00:12.268Z,15.70
2019-05-10T15:02:41.663Z,15.60
2019-05-10T15:05:16.114Z,15.60
2019-05-10T15:07:42.248Z,15.50
2019-05-10T15:10:11.992Z,15.50
2019-05-10T15:12:42.391Z,15.50
2019-05-10T15:15:12.192Z,15.40
2019-05-10T15:17:41.653Z,15.40
2019-05-10T15:20:11.521Z,15.30
2019-05-10T15:22:40.986Z,15.30
2019-05-10T15:25:10.769Z,15.20
2019-05-10T15:27:40.268Z,15.10
2019-05-10T15:30:10.101Z,15.00
2019-05-10T15:32:39.525Z,14.90
2019-05-10T15:35:09.456Z,14.80
2019-05-10T15:37:40.924Z,14.80
2019-05-10T15:40:11.767Z,14.70
2019-05-10T15:42:41.131Z,14.70
2019-05-10T15:45:14.187Z,14.60
2019-05-10T15:47:50.608Z,14.60
2019-05-10T15:50:14.048Z,14.60
2019-05-10T15:52:46.483Z,14.60
2019-05-10T15:55:17.134Z,14.60
2019-05-10T15:57:46.707Z,14.70
2019-05-10T16:00:18.200Z,14.70
2019-05-10T16:02:47.683Z,14.80
2019-05-10T16:05:29.303Z,14.90
2019-05-10T16:07:51.476Z,14.90
2019-05-10T16:10:19.496Z,14.90
2019-05-10T16:12:50.023Z,14.90
2019-05-10T16:15:21.152Z,15.00
2019-05-10T16:17:53.683Z,14.90
2019-05-10T16:20:21.522Z,14.90
2019-05-10T16:22:50.945Z,14.90
2019-05-10T16:28:43.547Z,14.90
2019-05-10T16:31:12.929Z,14.90
2019-05-10T16:33:42.355Z,14.80
2019-05-10T16:36:11.810Z,14.90
2019-05-10T16:38:41.247Z,15.00
2019-05-10T16:41:10.680Z,15.10
2019-05-10T16:43:40.115Z,15.10
2019-05-10T16:46:09.493Z,15.10
2019-05-10T16:48:38.908Z,15.00
2019-05-10T16:51:09.992Z,15.00
2019-05-10T16:53:43.904Z,15.10
2019-05-10T16:56:13.396Z,15.50
2019-05-10T17:02:16.849Z,15.90
2019-05-10T17:04:46.209Z,15.70
2019-05-10T17:07:18.849Z,15.40
2019-05-10T17:13:11.017Z,14.90
2019-05-10T17:15:41.731Z,14.90
2019-05-10T17:18:17.419Z,15.20
2019-05-10T17:24:07.119Z,15.20
2019-05-10T17:26:36.491Z,15.10
2019-05-10T17:29:07.149Z,14.90
2019-05-10T17:31:39.671Z,14.80
2019-05-10T17:34:08.207Z,14.70
2019-05-10T17:36:37.701Z,14.60
2019-05-10T17:39:07.427Z,14.50
2019-05-10T17:41:36.803Z,14.50
2019-05-10T17:44:06.295Z,14.40
2019-05-10T17:46:35.659Z,14.30
2019-05-10T17:49:05.071Z,14.10
2019-05-10T17:51:34.450Z,14.10
2019-05-10T17:54:03.935Z,14.00
2019-05-10T17:56:38.875Z,14.00
2019-05-10T17:59:05.825Z,13.90
2019-05-10T18:01:35.423Z,13.90
2019-05-10T18:04:04.939Z,13.80
2019-05-10T18:06:34.365Z,13.80
2019-05-10T18:09:05.571Z,13.70
2019-05-10T18:11:36.768Z,13.70
2019-05-10T18:14:06.877Z,13.60
2019-05-10T18:16:36.234Z,13.60
2019-05-10T18:19:05.660Z,13.60
2019-05-10T18:21:35.096Z,13.50
2019-05-10T18:24:04.536Z,13.50
2019-05-10T18:29:57.594Z,13.40
2019-05-10T18:36:02.683Z,13.30
2019-05-10T18:38:37.190Z,13.30
2019-05-10T18:41:05.342Z,13.30
2019-05-10T18:43:40.820Z,13.20
2019-05-10T18:46:26.884Z,13.20
2019-05-10T18:48:56.259Z,13.10
2019-05-10T18:51:26.489Z,13.10
2019-05-10T18:53:56.140Z,13.10
2019-05-10T19:00:00.812Z,13.00
2019-05-10T19:05:54.266Z,12.90
2019-05-10T19:08:23.783Z,12.80
2019-05-10T19:10:53.212Z,12.80
2019-05-10T19:13:22.983Z,12.80
2019-05-10T19:15:57.787Z,12.80
2019-05-10T19:18:25.501Z,12.70
2019-05-10T19:20:55.232Z,12.70
2019-05-10T19:23:24.928Z,12.70
2019-05-10T19:25:54.388Z,12.70
2019-05-10T19:28:26.994Z,12.60
2019-05-10T19:30:58.708Z,12.60
2019-05-10T19:33:29.886Z,12.60
2019-05-10T19:35:57.244Z,12.50
2019-05-10T19:38:26.671Z,12.50
2019-05-10T19:40:56.031Z,12.50
2019-05-10T19:47:01.583Z,12.50
2019-05-10T19:49:31.017Z,12.50
2019-05-10T19:52:00.397Z,12.40
2019-05-10T19:54:29.846Z,12.40
2019-05-10T19:56:59.276Z,12.40
2019-05-10T19:59:28.636Z,12.40
2019-05-10T20:01:57.999Z,12.30
2019-05-10T20:04:27.372Z,12.30
2019-05-10T20:06:56.816Z,12.30
2019-05-10T20:09:26.194Z,12.30
2019-05-10T20:11:55.627Z,12.20
2019-05-10T20:14:24.992Z,12.20
2019-05-10T20:16:54.422Z,12.20
2019-05-10T20:19:23.888Z,12.10
2019-05-10T20:21:53.323Z,12.10
2019-05-10T20:27:46.075Z,12.00
2019-05-10T20:30:15.895Z,12.00
2019-05-10T20:32:45.315Z,11.90
2019-05-10T20:35:16.333Z,11.90
2019-05-10T20:38:00.836Z,11.90
2019-05-10T20:40:16.905Z,11.90
2019-05-10T20:42:46.429Z,11.90
2019-05-10T20:45:16.191Z,11.80
2019-05-10T20:47:47.278Z,11.80
2019-05-10T20:50:17.051Z,11.80
2019-05-10T20:52:46.422Z,11.80
2019-05-10T20:55:16.191Z,11.80
2019-05-10T20:57:45.627Z,11.80
2019-05-10T21:00:15.467Z,11.80
2019-05-10T21:02:44.935Z,11.70
2019-05-10T21:05:14.552Z,11.70
2019-05-10T21:07:43.993Z,11.70
2019-05-10T21:10:13.663Z,11.70
2019-05-10T21:12:43.103Z,11.70
2019-05-10T21:15:12.616Z,11.60
2019-05-10T21:17:42.056Z,11.60
2019-05-10T21:20:11.880Z,11.50
2019-05-10T21:22:41.242Z,11.50
2019-05-10T21:25:12.304Z,11.50
2019-05-10T21:27:41.672Z,11.40
2019-05-10T21:30:11.587Z,11.30
2019-05-10T21:32:40.978Z,11.40
2019-05-10T21:35:10.471Z,11.30
2019-05-10T21:37:39.839Z,11.40
2019-05-10T21:40:09.556Z,11.30
2019-05-10T21:42:38.979Z,11.30
2019-05-10T21:45:09.385Z,11.30
2019-05-10T21:51:13.635Z,11.30
2019-05-10T21:53:42.941Z,11.30
2019-05-10T21:56:12.293Z,11.30
2019-05-10T21:58:41.668Z,11.30
2019-05-10T22:01:11.098Z,11.30
2019-05-10T22:03:40.672Z,11.30
2019-05-10T22:06:10.101Z,11.30
2019-05-10T22:08:48.948Z,11.20
2019-05-10T22:11:10.621Z,11.20
2019-05-10T22:13:40.051Z,11.20
2019-05-10T22:16:09.420Z,11.20
2019-05-10T22:18:38.933Z,11.20
2019-05-10T22:21:08.370Z,11.20
2019-05-10T22:23:37.805Z,11.20
2019-05-10T22:29:31.675Z,11.20
2019-05-10T22:32:01.043Z,11.20
2019-05-10T22:34:30.405Z,11.20
2019-05-10T22:36:59.770Z,11.20
2019-05-10T22:39:29.119Z,11.20
2019-05-10T22:41:58.485Z,11.20
2019-05-10T22:44:27.927Z,11.10
2019-05-10T22:46:57.301Z,11.10
2019-05-10T22:49:26.729Z,11.10
2019-05-10T22:51:56.159Z,11.10
2019-05-10T22:54:25.572Z,11.10
2019-05-10T22:56:54.950Z,11.10
2019-05-10T22:59:24.306Z,11.10
2019-05-10T23:01:53.669Z,11.10
2019-05-10T23:04:23.111Z,11.10
2019-05-10T23:06:52.480Z,11.00
2019-05-10T23:09:25.058Z,11.00
2019-05-10T23:11:52.923Z,11.00
2019-05-10T23:14:22.310Z,11.00
2019-05-10T23:16:51.671Z,11.00
2019-05-10T23:19:21.024Z,11.00
2019-05-10T23:21:50.997Z,11.00
2019-05-10T23:24:22.064Z,10.90
2019-05-10T23:26:51.419Z,10.90
2019-05-10T23:29:20.799Z,10.90
2019-05-10T23:31:50.159Z,10.90
2019-05-10T23:34:19.587Z,10.80
2019-05-10T23:36:48.952Z,10.90
2019-05-10T23:39:18.311Z,10.80
2019-05-10T23:41:47.671Z,10.90
2019-05-10T23:44:17.039Z,10.80
2019-05-10T23:46:46.500Z,10.80
2019-05-10T23:49:15.924Z,10.80
2019-05-10T23:51:45.301Z,10.80
2019-05-10T23:54:14.748Z,10.80
2019-05-10T23:56:44.108Z,10.80
2019-05-10T23:59:13.538Z,10.80
